sensor_id;sensor_type;location;lat;lon;timestamp;temperature;humidity
74537;SHT31;63013;51.104;-115.370;2023-06-04T00:02:24;21.78;42.69
74537;SHT31;63013;51.104;-115.370;2023-06-04T00:04:51;21.79;42.73
74537;SHT31;63013;51.104;-115.370;2023-06-04T00:07:19;21.81;42.80
74537;SHT31;63013;51.104;-115.370;2023-06-04T00:09:46;21.81;42.87
74537;SHT31;63013;51.104;-115.370;2023-06-04T00:12:14;21.81;42.94
74537;SHT31;63013;51.104;-115.370;2023-06-04T00:14:42;21.83;42.99
74537;SHT31;63013;51.104;-115.370;2023-06-04T00:17:09;21.85;42.97
74537;SHT31;63013;51.104;-115.370;2023-06-04T00:19:39;21.88;43.04
74537;SHT31;63013;51.104;-115.370;2023-06-04T00:22:07;21.90;43.15
74537;SHT31;63013;51.104;-115.370;2023-06-04T00:24:35;21.94;43.24
74537;SHT31;63013;51.104;-115.370;2023-06-04T00:27:07;21.97;43.24
74537;SHT31;63013;51.104;-115.370;2023-06-04T00:29:35;22.00;43.38
74537;SHT31;63013;51.104;-115.370;2023-06-04T00:32:02;22.05;43.31
74537;SHT31;63013;51.104;-115.370;2023-06-04T00:34:29;22.09;43.22
74537;SHT31;63013;51.104;-115.370;2023-06-04T00:36:56;22.13;43.16
74537;SHT31;63013;51.104;-115.370;2023-06-04T00:39:23;22.16;43.14
74537;SHT31;63013;51.104;-115.370;2023-06-04T00:41:50;22.21;43.10
74537;SHT31;63013;51.104;-115.370;2023-06-04T00:44:17;22.25;43.13
74537;SHT31;63013;51.104;-115.370;2023-06-04T00:46:47;22.29;43.11
74537;SHT31;63013;51.104;-115.370;2023-06-04T00:49:14;22.32;43.12
74537;SHT31;63013;51.104;-115.370;2023-06-04T00:51:41;22.35;43.07
74537;SHT31;63013;51.104;-115.370;2023-06-04T00:54:08;22.38;43.08
74537;SHT31;63013;51.104;-115.370;2023-06-04T00:56:37;22.39;43.10
74537;SHT31;63013;51.104;-115.370;2023-06-04T00:59:05;22.40;43.15
74537;SHT31;63013;51.104;-115.370;2023-06-04T01:04:29;22.40;43.20
74537;SHT31;63013;51.104;-115.370;2023-06-04T01:07:14;22.40;43.24
74537;SHT31;63013;51.104;-115.370;2023-06-04T01:09:43;22.40;43.30
74537;SHT31;63013;51.104;-115.370;2023-06-04T01:12:11;22.41;43.34
74537;SHT31;63013;51.104;-115.370;2023-06-04T01:14:39;22.41;43.38
74537;SHT31;63013;51.104;-115.370;2023-06-04T01:25:21;22.41;43.51
74537;SHT31;63013;51.104;-115.370;2023-06-04T01:28:10;22.42;43.56
74537;SHT31;63013;51.104;-115.370;2023-06-04T01:30:42;22.43;43.57
74537;SHT31;63013;51.104;-115.370;2023-06-04T01:33:16;22.44;43.62
74537;SHT31;63013;51.104;-115.370;2023-06-04T01:35:45;22.44;43.63
74537;SHT31;63013;51.104;-115.370;2023-06-04T01:38:12;22.44;43.68
74537;SHT31;63013;51.104;-115.370;2023-06-04T01:40:40;22.46;43.69
74537;SHT31;63013;51.104;-115.370;2023-06-04T01:43:07;22.47;43.70
74537;SHT31;63013;51.104;-115.370;2023-06-04T01:45:35;22.48;43.69
74537;SHT31;63013;51.104;-115.370;2023-06-04T01:48:03;22.49;43.70
74537;SHT31;63013;51.104;-115.370;2023-06-04T01:50:31;22.49;43.72
74537;SHT31;63013;51.104;-115.370;2023-06-04T01:52:58;22.50;43.71
74537;SHT31;63013;51.104;-115.370;2023-06-04T01:55:26;22.51;43.75
74537;SHT31;63013;51.104;-115.370;2023-06-04T01:57:55;22.51;43.74
74537;SHT31;63013;51.104;-115.370;2023-06-04T02:00:22;22.52;43.71
74537;SHT31;63013;51.104;-115.370;2023-06-04T02:02:49;22.53;43.73
74537;SHT31;63013;51.104;-115.370;2023-06-04T02:05:16;22.54;43.70
74537;SHT31;63013;51.104;-115.370;2023-06-04T02:07:43;22.55;43.70
74537;SHT31;63013;51.104;-115.370;2023-06-04T02:10:16;22.56;43.67
74537;SHT31;63013;51.104;-115.370;2023-06-04T02:12:56;22.57;43.65
74537;SHT31;63013;51.104;-115.370;2023-06-04T02:15:26;22.58;43.60
74537;SHT31;63013;51.104;-115.370;2023-06-04T02:17:55;22.58;43.60
74537;SHT31;63013;51.104;-115.370;2023-06-04T02:20:26;22.59;43.58
74537;SHT31;63013;51.104;-115.370;2023-06-04T02:22:54;22.60;43.52
74537;SHT31;63013;51.104;-115.370;2023-06-04T02:25:22;22.60;43.50
74537;SHT31;63013;51.104;-115.370;2023-06-04T02:27:52;22.61;43.47
74537;SHT31;63013;51.104;-115.370;2023-06-04T02:30:19;22.62;43.45
74537;SHT31;63013;51.104;-115.370;2023-06-04T02:32:46;22.63;43.41
74537;SHT31;63013;51.104;-115.370;2023-06-04T02:35:16;22.64;43.37
74537;SHT31;63013;51.104;-115.370;2023-06-04T02:37:43;22.64;43.30
74537;SHT31;63013;51.104;-115.370;2023-06-04T02:40:10;22.65;43.29
74537;SHT31;63013;51.104;-115.370;2023-06-04T02:42:37;22.65;43.27
74537;SHT31;63013;51.104;-115.370;2023-06-04T02:45:07;22.66;43.25
74537;SHT31;63013;51.104;-115.370;2023-06-04T02:47:37;22.67;43.22
74537;SHT31;63013;51.104;-115.370;2023-06-04T02:50:05;22.67;43.23
74537;SHT31;63013;51.104;-115.370;2023-06-04T02:52:33;22.68;43.22
74537;SHT31;63013;51.104;-115.370;2023-06-04T02:55:06;22.69;43.21
74537;SHT31;63013;51.104;-115.370;2023-06-04T02:57:35;22.70;43.20
74537;SHT31;63013;51.104;-115.370;2023-06-04T03:00:03;22.69;43.17
74537;SHT31;63013;51.104;-115.370;2023-06-04T03:02:38;22.71;43.15
74537;SHT31;63013;51.104;-115.370;2023-06-04T03:05:13;22.70;43.14
74537;SHT31;63013;51.104;-115.370;2023-06-04T03:07:43;22.71;43.16
74537;SHT31;63013;51.104;-115.370;2023-06-04T03:10:12;22.71;43.13
74537;SHT31;63013;51.104;-115.370;2023-06-04T03:12:41;22.72;43.13
74537;SHT31;63013;51.104;-115.370;2023-06-04T03:15:08;22.72;43.10
74537;SHT31;63013;51.104;-115.370;2023-06-04T03:17:36;22.73;43.09
74537;SHT31;63013;51.104;-115.370;2023-06-04T03:20:03;22.73;43.07
74537;SHT31;63013;51.104;-115.370;2023-06-04T03:22:32;22.74;43.01
74537;SHT31;63013;51.104;-115.370;2023-06-04T03:25:01;22.74;42.91
74537;SHT31;63013;51.104;-115.370;2023-06-04T03:27:31;22.74;42.90
74537;SHT31;63013;51.104;-115.370;2023-06-04T03:29:59;22.75;42.72
74537;SHT31;63013;51.104;-115.370;2023-06-04T03:32:26;22.75;42.41
74537;SHT31;63013;51.104;-115.370;2023-06-04T03:34:53;22.75;42.27
74537;SHT31;63013;51.104;-115.370;2023-06-04T03:37:20;22.75;42.10
74537;SHT31;63013;51.104;-115.370;2023-06-04T03:39:48;22.77;41.86
74537;SHT31;63013;51.104;-115.370;2023-06-04T03:42:14;22.77;41.73
74537;SHT31;63013;51.104;-115.370;2023-06-04T03:44:41;22.77;41.63
74537;SHT31;63013;51.104;-115.370;2023-06-04T03:47:09;22.78;41.63
74537;SHT31;63013;51.104;-115.370;2023-06-04T03:49:36;22.79;41.64
74537;SHT31;63013;51.104;-115.370;2023-06-04T03:52:03;22.78;41.65
74537;SHT31;63013;51.104;-115.370;2023-06-04T03:54:30;22.78;41.70
74537;SHT31;63013;51.104;-115.370;2023-06-04T03:56:57;22.80;41.65
74537;SHT31;63013;51.104;-115.370;2023-06-04T03:59:24;22.80;41.49
74537;SHT31;63013;51.104;-115.370;2023-06-04T04:01:51;22.80;41.43
74537;SHT31;63013;51.104;-115.370;2023-06-04T04:04:18;22.81;41.15
74537;SHT31;63013;51.104;-115.370;2023-06-04T04:06:45;22.80;40.95
74537;SHT31;63013;51.104;-115.370;2023-06-04T04:09:13;22.80;40.74
74537;SHT31;63013;51.104;-115.370;2023-06-04T04:11:40;22.82;40.31
74537;SHT31;63013;51.104;-115.370;2023-06-04T04:14:08;22.83;39.99
74537;SHT31;63013;51.104;-115.370;2023-06-04T04:16:35;22.85;39.80
74537;SHT31;63013;51.104;-115.370;2023-06-04T04:19:02;22.87;39.56
74537;SHT31;63013;51.104;-115.370;2023-06-04T04:21:29;22.89;39.42
74537;SHT31;63013;51.104;-115.370;2023-06-04T04:23:56;22.90;39.26
74537;SHT31;63013;51.104;-115.370;2023-06-04T04:26:23;22.92;39.28
74537;SHT31;63013;51.104;-115.370;2023-06-04T04:28:53;22.93;39.36
74537;SHT31;63013;51.104;-115.370;2023-06-04T04:31:23;22.94;39.31
74537;SHT31;63013;51.104;-115.370;2023-06-04T04:33:55;22.93;39.34
74537;SHT31;63013;51.104;-115.370;2023-06-04T04:36:22;22.94;39.64
74537;SHT31;63013;51.104;-115.370;2023-06-04T04:38:49;22.93;40.18
74537;SHT31;63013;51.104;-115.370;2023-06-04T04:41:20;22.94;40.43
74537;SHT31;63013;51.104;-115.370;2023-06-04T04:43:48;22.94;40.66
74537;SHT31;63013;51.104;-115.370;2023-06-04T04:46:15;22.93;40.72
74537;SHT31;63013;51.104;-115.370;2023-06-04T04:48:42;22.93;40.83
74537;SHT31;63013;51.104;-115.370;2023-06-04T04:51:10;22.93;40.95
74537;SHT31;63013;51.104;-115.370;2023-06-04T04:53:36;22.93;40.90
74537;SHT31;63013;51.104;-115.370;2023-06-04T04:56:04;22.93;40.88
74537;SHT31;63013;51.104;-115.370;2023-06-04T04:58:31;22.92;40.82
74537;SHT31;63013;51.104;-115.370;2023-06-04T05:00:58;22.91;40.88
74537;SHT31;63013;51.104;-115.370;2023-06-04T05:03:24;22.91;40.90
74537;SHT31;63013;51.104;-115.370;2023-06-04T05:05:52;22.91;40.89
74537;SHT31;63013;51.104;-115.370;2023-06-04T05:08:18;22.90;40.91
74537;SHT31;63013;51.104;-115.370;2023-06-04T05:10:45;22.89;40.94
74537;SHT31;63013;51.104;-115.370;2023-06-04T05:13:12;22.89;41.01
74537;SHT31;63013;51.104;-115.370;2023-06-04T05:15:40;22.87;40.84
74537;SHT31;63013;51.104;-115.370;2023-06-04T05:18:08;22.86;40.80
74537;SHT31;63013;51.104;-115.370;2023-06-04T05:20:35;22.84;40.78
74537;SHT31;63013;51.104;-115.370;2023-06-04T05:23:03;22.83;40.71
74537;SHT31;63013;51.104;-115.370;2023-06-04T05:25:30;22.81;40.62
74537;SHT31;63013;51.104;-115.370;2023-06-04T05:27:57;22.80;40.59
74537;SHT31;63013;51.104;-115.370;2023-06-04T05:30:24;22.79;40.53
74537;SHT31;63013;51.104;-115.370;2023-06-04T05:32:51;22.76;40.49
74537;SHT31;63013;51.104;-115.370;2023-06-04T05:35:19;22.74;40.50
74537;SHT31;63013;51.104;-115.370;2023-06-04T05:37:45;22.72;40.43
74537;SHT31;63013;51.104;-115.370;2023-06-04T05:40:19;22.72;40.45
74537;SHT31;63013;51.104;-115.370;2023-06-04T05:42:47;22.70;40.46
74537;SHT31;63013;51.104;-115.370;2023-06-04T05:45:15;22.68;40.61
74537;SHT31;63013;51.104;-115.370;2023-06-04T05:47:41;22.67;41.01
74537;SHT31;63013;51.104;-115.370;2023-06-04T05:50:09;22.68;41.07
74537;SHT31;63013;51.104;-115.370;2023-06-04T05:52:36;22.66;41.13
74537;SHT31;63013;51.104;-115.370;2023-06-04T05:55:03;22.66;41.18
74537;SHT31;63013;51.104;-115.370;2023-06-04T05:57:35;22.65;41.18
74537;SHT31;63013;51.104;-115.370;2023-06-04T06:00:02;22.65;41.19
74537;SHT31;63013;51.104;-115.370;2023-06-04T06:02:36;22.64;41.19
74537;SHT31;63013;51.104;-115.370;2023-06-04T06:05:04;22.64;41.19
74537;SHT31;63013;51.104;-115.370;2023-06-04T06:07:35;22.62;41.22
74537;SHT31;63013;51.104;-115.370;2023-06-04T06:10:02;22.61;41.21
74537;SHT31;63013;51.104;-115.370;2023-06-04T06:12:30;22.60;41.27
74537;SHT31;63013;51.104;-115.370;2023-06-04T06:14:57;22.59;41.27
74537;SHT31;63013;51.104;-115.370;2023-06-04T06:17:24;22.58;41.23
74537;SHT31;63013;51.104;-115.370;2023-06-04T06:19:51;22.56;40.76
74537;SHT31;63013;51.104;-115.370;2023-06-04T06:22:18;22.54;40.85
74537;SHT31;63013;51.104;-115.370;2023-06-04T06:24:45;22.53;41.09
74537;SHT31;63013;51.104;-115.370;2023-06-04T06:27:14;22.53;41.18
74537;SHT31;63013;51.104;-115.370;2023-06-04T06:29:42;22.52;41.21
74537;SHT31;63013;51.104;-115.370;2023-06-04T06:32:10;22.52;41.20
74537;SHT31;63013;51.104;-115.370;2023-06-04T06:34:37;22.51;41.23
74537;SHT31;63013;51.104;-115.370;2023-06-04T06:37:05;22.51;41.28
74537;SHT31;63013;51.104;-115.370;2023-06-04T06:39:33;22.51;41.33
74537;SHT31;63013;51.104;-115.370;2023-06-04T06:42:00;22.50;41.39
74537;SHT31;63013;51.104;-115.370;2023-06-04T06:44:27;22.49;41.40
74537;SHT31;63013;51.104;-115.370;2023-06-04T06:46:54;22.48;41.44
74537;SHT31;63013;51.104;-115.370;2023-06-04T06:49:21;22.47;41.41
74537;SHT31;63013;51.104;-115.370;2023-06-04T06:51:49;22.45;41.33
74537;SHT31;63013;51.104;-115.370;2023-06-04T06:54:16;22.44;41.29
74537;SHT31;63013;51.104;-115.370;2023-06-04T06:56:49;22.42;41.22
74537;SHT31;63013;51.104;-115.370;2023-06-04T06:59:17;22.42;41.20
74537;SHT31;63013;51.104;-115.370;2023-06-04T07:01:44;22.40;41.20
74537;SHT31;63013;51.104;-115.370;2023-06-04T08:08:42;22.08;41.60
74537;SHT31;63013;51.104;-115.370;2023-06-04T08:11:14;22.08;41.63
74537;SHT31;63013;51.104;-115.370;2023-06-04T08:13:41;22.07;41.62
74537;SHT31;63013;51.104;-115.370;2023-06-04T08:16:09;22.06;41.60
74537;SHT31;63013;51.104;-115.370;2023-06-04T08:18:39;22.07;41.60
74537;SHT31;63013;51.104;-115.370;2023-06-04T08:21:10;22.07;41.59
74537;SHT31;63013;51.104;-115.370;2023-06-04T08:23:37;22.08;41.58
74537;SHT31;63013;51.104;-115.370;2023-06-04T08:26:06;22.08;41.56
74537;SHT31;63013;51.104;-115.370;2023-06-04T08:28:33;22.07;41.56
74537;SHT31;63013;51.104;-115.370;2023-06-04T08:31:00;22.07;41.50
74537;SHT31;63013;51.104;-115.370;2023-06-04T08:33:27;22.06;41.50
74537;SHT31;63013;51.104;-115.370;2023-06-04T08:35:54;22.07;41.51
74537;SHT31;63013;51.104;-115.370;2023-06-04T08:38:21;22.06;41.46
74537;SHT31;63013;51.104;-115.370;2023-06-04T08:40:48;22.05;41.43
74537;SHT31;63013;51.104;-115.370;2023-06-04T08:43:22;22.06;41.45
74537;SHT31;63013;51.104;-115.370;2023-06-04T08:45:50;22.05;41.49
74537;SHT31;63013;51.104;-115.370;2023-06-04T08:48:27;22.04;41.43
74537;SHT31;63013;51.104;-115.370;2023-06-04T08:50:58;22.04;41.43
74537;SHT31;63013;51.104;-115.370;2023-06-04T08:53:29;22.03;41.41
74537;SHT31;63013;51.104;-115.370;2023-06-04T08:55:57;22.03;41.39
74537;SHT31;63013;51.104;-115.370;2023-06-04T08:58:25;22.02;41.38
74537;SHT31;63013;51.104;-115.370;2023-06-04T09:00:59;22.01;41.38
74537;SHT31;63013;51.104;-115.370;2023-06-04T09:03:27;22.01;41.37
74537;SHT31;63013;51.104;-115.370;2023-06-04T09:06:01;22.00;41.40
74537;SHT31;63013;51.104;-115.370;2023-06-04T09:08:31;21.99;41.41
74537;SHT31;63013;51.104;-115.370;2023-06-04T09:11:04;21.98;41.40
74537;SHT31;63013;51.104;-115.370;2023-06-04T09:13:36;21.97;41.40
74537;SHT31;63013;51.104;-115.370;2023-06-04T09:16:05;21.97;41.39
74537;SHT31;63013;51.104;-115.370;2023-06-04T09:18:32;21.96;41.38
74537;SHT31;63013;51.104;-115.370;2023-06-04T09:21:00;21.94;41.39
74537;SHT31;63013;51.104;-115.370;2023-06-04T09:23:50;21.94;41.31
74537;SHT31;63013;51.104;-115.370;2023-06-04T09:26:18;21.93;41.30
74537;SHT31;63013;51.104;-115.370;2023-06-04T09:28:47;21.92;41.31
74537;SHT31;63013;51.104;-115.370;2023-06-04T09:31:16;21.91;41.30
74537;SHT31;63013;51.104;-115.370;2023-06-04T09:33:50;21.90;41.30
74537;SHT31;63013;51.104;-115.370;2023-06-04T09:36:17;21.89;41.36
74537;SHT31;63013;51.104;-115.370;2023-06-04T09:38:45;21.89;41.40
74537;SHT31;63013;51.104;-115.370;2023-06-04T09:41:13;21.88;41.40
74537;SHT31;63013;51.104;-115.370;2023-06-04T09:43:46;21.86;41.38
74537;SHT31;63013;51.104;-115.370;2023-06-04T09:46:16;21.85;41.34
74537;SHT31;63013;51.104;-115.370;2023-06-04T09:48:44;21.83;41.31
74537;SHT31;63013;51.104;-115.370;2023-06-04T09:51:12;21.83;41.31
74537;SHT31;63013;51.104;-115.370;2023-06-04T09:53:41;21.82;41.30
74537;SHT31;63013;51.104;-115.370;2023-06-04T09:56:18;21.81;41.29
74537;SHT31;63013;51.104;-115.370;2023-06-04T09:58:47;21.80;41.27
74537;SHT31;63013;51.104;-115.370;2023-06-04T10:01:19;21.79;41.27
74537;SHT31;63013;51.104;-115.370;2023-06-04T10:03:48;21.78;41.26
74537;SHT31;63013;51.104;-115.370;2023-06-04T10:06:18;21.76;41.28
74537;SHT31;63013;51.104;-115.370;2023-06-04T10:08:47;21.75;41.26
74537;SHT31;63013;51.104;-115.370;2023-06-04T10:11:17;21.74;41.28
74537;SHT31;63013;51.104;-115.370;2023-06-04T10:14:03;21.72;41.24
74537;SHT31;63013;51.104;-115.370;2023-06-04T10:16:44;21.70;41.22
74537;SHT31;63013;51.104;-115.370;2023-06-04T10:19:13;21.70;41.20
74537;SHT31;63013;51.104;-115.370;2023-06-04T10:21:43;21.69;41.20
74537;SHT31;63013;51.104;-115.370;2023-06-04T10:24:12;21.68;41.20
74537;SHT31;63013;51.104;-115.370;2023-06-04T10:26:40;21.66;41.20
74537;SHT31;63013;51.104;-115.370;2023-06-04T10:29:09;21.64;41.22
74537;SHT31;63013;51.104;-115.370;2023-06-04T10:31:38;21.63;41.21
74537;SHT31;63013;51.104;-115.370;2023-06-04T10:34:07;21.62;41.21
74537;SHT31;63013;51.104;-115.370;2023-06-04T10:36:41;21.61;41.20
74537;SHT31;63013;51.104;-115.370;2023-06-04T10:39:10;21.60;41.19
74537;SHT31;63013;51.104;-115.370;2023-06-04T10:41:38;21.58;41.17
74537;SHT31;63013;51.104;-115.370;2023-06-04T10:44:05;21.58;41.17
74537;SHT31;63013;51.104;-115.370;2023-06-04T10:46:39;21.56;41.18
74537;SHT31;63013;51.104;-115.370;2023-06-04T10:49:11;21.55;41.18
74537;SHT31;63013;51.104;-115.370;2023-06-04T10:51:37;21.53;41.18
74537;SHT31;63013;51.104;-115.370;2023-06-04T10:54:04;21.52;41.20
74537;SHT31;63013;51.104;-115.370;2023-06-04T10:56:32;21.51;41.20
74537;SHT31;63013;51.104;-115.370;2023-06-04T10:59:00;21.50;41.19
74537;SHT31;63013;51.104;-115.370;2023-06-04T11:01:44;21.48;41.19
74537;SHT31;63013;51.104;-115.370;2023-06-04T11:04:18;21.47;41.18
74537;SHT31;63013;51.104;-115.370;2023-06-04T11:06:47;21.46;41.16
74537;SHT31;63013;51.104;-115.370;2023-06-04T11:09:47;21.44;41.12
74537;SHT31;63013;51.104;-115.370;2023-06-04T11:12:15;21.43;41.14
74537;SHT31;63013;51.104;-115.370;2023-06-04T11:14:58;21.41;41.15
74537;SHT31;63013;51.104;-115.370;2023-06-04T11:17:25;21.41;41.15
74537;SHT31;63013;51.104;-115.370;2023-06-04T11:19:52;21.40;41.16
74537;SHT31;63013;51.104;-115.370;2023-06-04T11:22:20;21.38;41.11
74537;SHT31;63013;51.104;-115.370;2023-06-04T11:24:48;21.37;41.13
74537;SHT31;63013;51.104;-115.370;2023-06-04T11:27:21;21.36;41.12
74537;SHT31;63013;51.104;-115.370;2023-06-04T11:29:49;21.34;41.10
74537;SHT31;63013;51.104;-115.370;2023-06-04T11:32:21;21.33;41.11
74537;SHT31;63013;51.104;-115.370;2023-06-04T11:35:01;21.32;41.11
74537;SHT31;63013;51.104;-115.370;2023-06-04T11:37:32;21.30;41.10
74537;SHT31;63013;51.104;-115.370;2023-06-04T11:40:00;21.29;41.10
74537;SHT31;63013;51.104;-115.370;2023-06-04T11:42:30;21.27;41.10
74537;SHT31;63013;51.104;-115.370;2023-06-04T11:44:58;21.27;41.11
74537;SHT31;63013;51.104;-115.370;2023-06-04T11:47:26;21.25;41.12
74537;SHT31;63013;51.104;-115.370;2023-06-04T11:49:57;21.23;41.14
74537;SHT31;63013;51.104;-115.370;2023-06-04T11:52:25;21.23;41.16
74537;SHT31;63013;51.104;-115.370;2023-06-04T11:54:53;21.22;41.12
74537;SHT31;63013;51.104;-115.370;2023-06-04T11:57:21;21.18;41.11
74537;SHT31;63013;51.104;-115.370;2023-06-04T11:59:48;21.17;41.10
74537;SHT31;63013;51.104;-115.370;2023-06-04T12:02:16;21.16;41.10
74537;SHT31;63013;51.104;-115.370;2023-06-04T12:04:47;21.15;41.05
74537;SHT31;63013;51.104;-115.370;2023-06-04T12:07:18;21.13;41.04
74537;SHT31;63013;51.104;-115.370;2023-06-04T12:09:49;21.11;41.09
74537;SHT31;63013;51.104;-115.370;2023-06-04T12:12:21;21.10;41.09
74537;SHT31;63013;51.104;-115.370;2023-06-04T12:14:58;21.08;41.10
74537;SHT31;63013;51.104;-115.370;2023-06-04T12:17:25;21.06;41.07
74537;SHT31;63013;51.104;-115.370;2023-06-04T12:19:53;21.04;41.10
74537;SHT31;63013;51.104;-115.370;2023-06-04T12:22:21;21.04;41.10
74537;SHT31;63013;51.104;-115.370;2023-06-04T12:24:52;21.02;41.10
74537;SHT31;63013;51.104;-115.370;2023-06-04T12:27:25;21.01;41.11
74537;SHT31;63013;51.104;-115.370;2023-06-04T12:32:34;20.98;41.18
74537;SHT31;63013;51.104;-115.370;2023-06-04T12:35:01;20.98;41.17
74537;SHT31;63013;51.104;-115.370;2023-06-04T12:37:28;20.96;41.18
74537;SHT31;63013;51.104;-115.370;2023-06-04T12:39:56;20.95;41.17
74537;SHT31;63013;51.104;-115.370;2023-06-04T12:42:23;20.94;41.15
74537;SHT31;63013;51.104;-115.370;2023-06-04T12:44:50;20.92;41.18
74537;SHT31;63013;51.104;-115.370;2023-06-04T12:47:17;20.92;41.13
74537;SHT31;63013;51.104;-115.370;2023-06-04T12:49:45;20.90;41.15
74537;SHT31;63013;51.104;-115.370;2023-06-04T12:52:13;20.89;41.15
74537;SHT31;63013;51.104;-115.370;2023-06-04T12:54:40;20.88;41.17
74537;SHT31;63013;51.104;-115.370;2023-06-04T12:57:08;20.87;41.16
74537;SHT31;63013;51.104;-115.370;2023-06-04T12:59:36;20.85;41.12
74537;SHT31;63013;51.104;-115.370;2023-06-04T13:02:03;20.84;41.16
74537;SHT31;63013;51.104;-115.370;2023-06-04T13:04:31;20.83;41.11
74537;SHT31;63013;51.104;-115.370;2023-06-04T13:06:57;20.81;40.91
74537;SHT31;63013;51.104;-115.370;2023-06-04T13:09:25;20.78;40.57
74537;SHT31;63013;51.104;-115.370;2023-06-04T13:11:57;20.75;40.94
74537;SHT31;63013;51.104;-115.370;2023-06-04T13:14:23;20.74;41.11
74537;SHT31;63013;51.104;-115.370;2023-06-04T13:16:51;20.74;41.14
74537;SHT31;63013;51.104;-115.370;2023-06-04T13:19:18;20.72;41.12
74537;SHT31;63013;51.104;-115.370;2023-06-04T13:21:46;20.72;41.11
74537;SHT31;63013;51.104;-115.370;2023-06-04T13:24:13;20.71;41.07
74537;SHT31;63013;51.104;-115.370;2023-06-04T13:26:40;20.70;41.14
74537;SHT31;63013;51.104;-115.370;2023-06-04T13:29:08;20.69;41.18
74537;SHT31;63013;51.104;-115.370;2023-06-04T13:31:35;20.69;41.17
74537;SHT31;63013;51.104;-115.370;2023-06-04T13:34:05;20.68;41.17
74537;SHT31;63013;51.104;-115.370;2023-06-04T13:36:32;20.67;41.26
74537;SHT31;63013;51.104;-115.370;2023-06-04T13:38:59;20.66;41.21
74537;SHT31;63013;51.104;-115.370;2023-06-04T13:41:26;20.64;41.21
74537;SHT31;63013;51.104;-115.370;2023-06-04T13:43:53;20.64;41.20
74537;SHT31;63013;51.104;-115.370;2023-06-04T13:46:20;20.63;41.21
74537;SHT31;63013;51.104;-115.370;2023-06-04T13:48:47;20.62;41.22
74537;SHT31;63013;51.104;-115.370;2023-06-04T13:51:14;20.62;41.17
74537;SHT31;63013;51.104;-115.370;2023-06-04T13:53:40;20.60;41.21
74537;SHT31;63013;51.104;-115.370;2023-06-04T13:56:07;20.59;41.24
74537;SHT31;63013;51.104;-115.370;2023-06-04T13:58:34;20.58;41.39
74537;SHT31;63013;51.104;-115.370;2023-06-04T14:01:01;20.58;41.44
74537;SHT31;63013;51.104;-115.370;2023-06-04T14:03:28;20.57;41.48
74537;SHT31;63013;51.104;-115.370;2023-06-04T14:05:55;20.56;41.52
74537;SHT31;63013;51.104;-115.370;2023-06-04T14:08:22;20.56;41.58
74537;SHT31;63013;51.104;-115.370;2023-06-04T14:10:49;20.56;41.69
74537;SHT31;63013;51.104;-115.370;2023-06-04T14:13:17;20.55;41.73
74537;SHT31;63013;51.104;-115.370;2023-06-04T14:15:44;20.54;41.72
74537;SHT31;63013;51.104;-115.370;2023-06-04T14:18:11;20.54;41.70
74537;SHT31;63013;51.104;-115.370;2023-06-04T14:20:38;20.54;41.70
74537;SHT31;63013;51.104;-115.370;2023-06-04T14:23:05;20.54;41.66
74537;SHT31;63013;51.104;-115.370;2023-06-04T14:25:32;20.54;41.69
74537;SHT31;63013;51.104;-115.370;2023-06-04T14:28:02;20.54;41.75
74537;SHT31;63013;51.104;-115.370;2023-06-04T14:30:29;20.54;41.70
74537;SHT31;63013;51.104;-115.370;2023-06-04T14:32:56;20.54;41.64
74537;SHT31;63013;51.104;-115.370;2023-06-04T14:35:23;20.54;41.72
74537;SHT31;63013;51.104;-115.370;2023-06-04T14:37:50;20.55;41.90
74537;SHT31;63013;51.104;-115.370;2023-06-04T14:40:17;20.54;41.88
74537;SHT31;63013;51.104;-115.370;2023-06-04T14:42:45;20.54;41.82
74537;SHT31;63013;51.104;-115.370;2023-06-04T14:45:11;20.54;41.93
74537;SHT31;63013;51.104;-115.370;2023-06-04T14:47:38;20.54;42.03
74537;SHT31;63013;51.104;-115.370;2023-06-04T14:50:05;20.54;42.05
74537;SHT31;63013;51.104;-115.370;2023-06-04T14:52:32;20.54;42.13
74537;SHT31;63013;51.104;-115.370;2023-06-04T14:54:59;20.53;42.16
74537;SHT31;63013;51.104;-115.370;2023-06-04T14:57:26;20.55;42.10
74537;SHT31;63013;51.104;-115.370;2023-06-04T14:59:53;20.55;42.15
74537;SHT31;63013;51.104;-115.370;2023-06-04T15:02:20;20.57;42.23
74537;SHT31;63013;51.104;-115.370;2023-06-04T15:04:47;20.58;42.49
74537;SHT31;63013;51.104;-115.370;2023-06-04T15:07:14;20.59;42.50
74537;SHT31;63013;51.104;-115.370;2023-06-04T15:09:40;20.59;42.50
74537;SHT31;63013;51.104;-115.370;2023-06-04T15:12:07;20.59;42.42
74537;SHT31;63013;51.104;-115.370;2023-06-04T15:14:34;20.60;42.46
74537;SHT31;63013;51.104;-115.370;2023-06-04T15:17:02;20.59;42.49
74537;SHT31;63013;51.104;-115.370;2023-06-04T15:19:29;20.59;42.58
74537;SHT31;63013;51.104;-115.370;2023-06-04T15:21:56;20.59;42.47
74537;SHT31;63013;51.104;-115.370;2023-06-04T15:24:23;20.58;42.56
74537;SHT31;63013;51.104;-115.370;2023-06-04T15:26:50;20.57;42.52
74537;SHT31;63013;51.104;-115.370;2023-06-04T15:29:17;20.57;42.60
74537;SHT31;63013;51.104;-115.370;2023-06-04T15:31:44;20.57;42.69
74537;SHT31;63013;51.104;-115.370;2023-06-04T15:34:12;20.56;42.77
74537;SHT31;63013;51.104;-115.370;2023-06-04T15:36:39;20.56;42.75
74537;SHT31;63013;51.104;-115.370;2023-06-04T15:39:06;20.56;42.77
74537;SHT31;63013;51.104;-115.370;2023-06-04T15:41:33;20.55;42.83
74537;SHT31;63013;51.104;-115.370;2023-06-04T15:44:00;20.54;42.89
74537;SHT31;63013;51.104;-115.370;2023-06-04T15:46:27;20.53;42.96
74537;SHT31;63013;51.104;-115.370;2023-06-04T15:48:55;20.53;42.96
74537;SHT31;63013;51.104;-115.370;2023-06-04T15:51:22;20.52;42.97
74537;SHT31;63013;51.104;-115.370;2023-06-04T15:53:49;20.53;42.99
74537;SHT31;63013;51.104;-115.370;2023-06-04T15:56:16;20.53;42.93
74537;SHT31;63013;51.104;-115.370;2023-06-04T15:58:44;20.53;42.99
74537;SHT31;63013;51.104;-115.370;2023-06-04T16:01:11;20.53;43.10
74537;SHT31;63013;51.104;-115.370;2023-06-04T16:03:38;20.52;43.15
74537;SHT31;63013;51.104;-115.370;2023-06-04T16:06:05;20.52;43.23
74537;SHT31;63013;51.104;-115.370;2023-06-04T16:08:32;20.52;43.29
74537;SHT31;63013;51.104;-115.370;2023-06-04T16:10:59;20.52;43.34
74537;SHT31;63013;51.104;-115.370;2023-06-04T16:13:26;20.53;43.38
74537;SHT31;63013;51.104;-115.370;2023-06-04T16:15:54;20.51;43.42